Time;durP1;ratioP1;P1;durP2;ratioP2;P2;SDS_P1;SDS_P2;PMS_P1;PMS_P2;Temp;Humidity;BMP_temperature;BMP_pressure;BME280_temperature;BME280_humidity;BME280_pressure;Samples;Min_cycle;Max_cycle;Signal;HPM_P1;HPM_P2
2021/07/19 00:02:37;;;;;;;10.07;7.60;;;;;;;23.32;61.88;98808.53;260710;1095;114570;-69
2021/07/19 00:07:46;;;;;;;10.50;6.88;;;;;;;23.31;61.89;98810.41;261125;1096;115259;-74
2021/07/19 00:12:52;;;;;;;11.03;7.13;;;;;;;23.26;61.56;98820.95;260964;1095;115031;-70
2021/07/19 00:18:13;;;;;;;12.67;7.33;;;;;;;23.22;61.52;98810.65;261059;1096;114680;-70
2021/07/19 00:23:26;;;;;;;8.07;6.77;;;;;;;23.16;61.32;98825.78;261011;1095;114866;-70
2021/07/19 00:28:35;;;;;;;7.80;6.43;;;;;;;23.13;61.57;98834.28;261111;1095;114436;-68
2021/07/19 00:33:48;;;;;;;9.70;6.20;;;;;;;23.10;61.33;98842.81;260845;1095;116662;-70
2021/07/19 00:38:55;;;;;;;9.20;6.80;;;;;;;23.07;61.65;98829.60;260834;1095;114073;-67
2021/07/19 00:44:03;;;;;;;8.33;5.97;;;;;;;23.02;61.74;98830.13;261217;1095;114530;-69
2021/07/19 00:49:13;;;;;;;7.37;5.77;;;;;;;23.04;61.71;98825.38;260783;1095;115659;-69
2021/07/19 00:54:25;;;;;;;10.50;6.60;;;;;;;23.04;61.61;98825.38;260906;1096;114735;-69
2021/07/19 00:59:35;;;;;;;9.57;6.27;;;;;;;23.02;61.86;98826.56;260760;1095;115476;-69
2021/07/19 01:04:42;;;;;;;8.88;5.60;;;;;;;23.03;61.82;98830.96;261325;1096;114946;-70
2021/07/19 01:09:48;;;;;;;15.13;6.40;;;;;;;22.97;61.53;98821.69;262004;1096;114533;-71
2021/07/19 01:14:54;;;;;;;8.70;6.17;;;;;;;22.94;61.64;98827.47;262180;1096;115187;-75
2021/07/19 01:19:59;;;;;;;12.90;6.28;;;;;;;22.89;61.45;98829.83;261203;1095;115487;-72
2021/07/19 01:25:29;;;;;;;10.30;5.67;;;;;;;22.78;61.53;98830.25;260709;1095;114791;-71
2021/07/19 01:30:43;;;;;;;11.40;5.40;;;;;;;22.67;61.63;98834.21;260769;1095;114621;-71
2021/07/19 01:35:53;;;;;;;7.23;5.17;;;;;;;22.55;61.66;98822.05;261004;1096;115347;-68
2021/07/19 01:41:05;;;;;;;10.30;5.10;;;;;;;22.46;61.84;98820.42;260952;1095;114823;-67
2021/07/19 01:46:16;;;;;;;10.47;6.20;;;;;;;22.38;61.90;98824.87;261187;1095;114855;-69
2021/07/19 01:51:28;;;;;;;8.17;4.87;;;;;;;22.30;61.94;98815.91;260666;1095;115112;-68
2021/07/19 01:56:41;;;;;;;7.77;4.97;;;;;;;22.22;62.02;98816.79;260919;1096;114643;-68
2021/07/19 02:01:49;;;;;;;7.43;4.43;;;;;;;22.05;62.04;98826.81;260825;1096;114756;-70
2021/07/19 02:07:03;;;;;;;13.70;4.00;;;;;;;21.93;62.23;98826.31;261228;1095;115637;-69
2021/07/19 02:12:11;;;;;;;7.13;3.53;;;;;;;21.83;62.32;98828.36;260840;1095;114978;-68
2021/07/19 02:17:24;;;;;;;8.63;3.83;;;;;;;21.74;62.50;98826.71;260878;1095;114406;-69
2021/07/19 02:22:30;;;;;;;10.90;3.90;;;;;;;21.65;62.24;98831.28;261144;1094;114955;-70
2021/07/19 02:27:48;;;;;;;6.63;3.80;;;;;;;21.58;62.73;98827.56;260947;1095;114966;-72
2021/07/19 02:32:59;;;;;;;7.47;3.70;;;;;;;21.48;62.86;98833.15;261188;1095;114405;-70
2021/07/19 02:38:11;;;;;;;9.10;3.30;;;;;;;21.41;63.05;98839.42;260803;1096;115232;-73
2021/07/19 02:43:29;;;;;;;11.23;3.50;;;;;;;21.35;62.89;98831.97;260735;1095;114629;-70
2021/07/19 02:48:47;;;;;;;7.03;3.80;;;;;;;21.23;63.20;98834.14;260948;1095;115181;-72
2021/07/19 02:53:56;;;;;;;10.13;3.90;;;;;;;21.18;63.34;98840.05;260904;1096;114375;-71
2021/07/19 02:59:14;;;;;;;6.40;3.77;;;;;;;21.10;63.46;98823.81;260853;1096;115322;-70
2021/07/19 03:04:25;;;;;;;10.88;4.90;;;;;;;21.05;63.50;98845.09;260961;1095;115198;-68
2021/07/19 03:09:39;;;;;;;9.33;4.20;;;;;;;21.02;64.01;98840.89;261139;1095;114547;-70
2021/07/19 03:14:53;;;;;;;6.50;3.40;;;;;;;20.94;63.68;98857.09;260681;1096;114547;-69
2021/07/19 03:20:05;;;;;;;11.63;4.10;;;;;;;20.88;63.84;98856.91;261073;1095;115303;-69
2021/07/19 03:25:15;;;;;;;7.13;4.13;;;;;;;20.84;63.85;98858.25;260935;1095;115753;-72
2021/07/19 03:30:27;;;;;;;7.90;4.60;;;;;;;20.77;64.09;98842.67;260823;1094;113442;-70
2021/07/19 03:35:44;;;;;;;12.15;4.35;;;;;;;20.76;63.94;98857.22;260253;1098;114445;-71
2021/07/19 03:40:57;;;;;;;9.13;4.60;;;;;;;20.73;64.30;98862.11;260518;1099;115276;-69
2021/07/19 03:46:06;;;;;;;10.27;5.40;;;;;;;20.72;64.36;98860.40;260784;1099;114792;-70
2021/07/19 03:51:17;;;;;;;8.70;4.73;;;;;;;20.71;64.28;98851.44;260997;1097;115502;-69
2021/07/19 03:56:28;;;;;;;8.90;4.90;;;;;;;20.71;64.68;98854.14;260656;1097;114515;-69
2021/07/19 04:01:45;;;;;;;6.60;4.23;;;;;;;20.69;64.45;98858.89;260731;1096;114312;-65
2021/07/19 04:06:53;;;;;;;10.57;4.33;;;;;;;20.75;64.42;98860.95;260426;1097;114351;-70
2021/07/19 04:12:17;;;;;;;16.70;5.40;;;;;;;20.81;64.74;98863.98;261047;1097;114625;-69
2021/07/19 04:17:27;;;;;;;8.77;4.77;;;;;;;20.86;64.76;98878.72;260515;1098;115067;-70
2021/07/19 04:22:42;;;;;;;11.70;5.47;;;;;;;20.87;64.97;98880.41;260658;1098;115177;-73
2021/07/19 04:27:53;;;;;;;14.97;5.60;;;;;;;20.89;64.78;98882.94;260569;1098;115847;-70
2021/07/19 04:33:06;;;;;;;11.43;5.03;;;;;;;20.90;64.49;98890.91;260918;1096;114596;-71
2021/07/19 04:38:19;;;;;;;11.07;6.50;;;;;;;20.95;64.77;98899.36;260775;1096;114668;-69
2021/07/19 04:43:33;;;;;;;7.30;5.23;;;;;;;21.00;64.36;98909.70;261103;1095;115103;-72
2021/07/19 04:48:41;;;;;;;9.97;5.43;;;;;;;21.06;64.49;98906.34;260878;1095;114435;-69
2021/07/19 04:53:50;;;;;;;9.00;5.37;;;;;;;21.13;64.48;98907.38;261118;1095;114223;-70
2021/07/19 04:59:00;;;;;;;10.73;5.43;;;;;;;21.18;64.75;98904.16;261296;1095;115639;-68
2021/07/19 05:04:11;;;;;;;10.57;6.00;;;;;;;21.79;66.77;98902.88;260886;1096;114590;-68
2021/07/19 05:09:20;;;;;;;11.40;6.63;;;;;;;22.42;66.39;98899.42;261097;1096;116229;-69
2021/07/19 05:14:26;;;;;;;24.97;14.33;;;;;;;22.82;64.99;98897.55;260901;1095;115549;-69
2021/07/19 05:19:39;;;;;;;14.43;7.20;;;;;;;23.03;64.79;98896.11;260684;1096;117157;-70
2021/07/19 05:24:47;;;;;;;13.00;6.70;;;;;;;23.14;64.55;98891.14;260708;1096;118358;-70
2021/07/19 05:29:58;;;;;;;16.03;7.43;;;;;;;23.23;63.66;98896.50;260917;1095;115541;-70
2021/07/19 05:35:04;;;;;;;64.07;51.07;;;;;;;23.29;63.56;98903.94;260845;1095;115424;-69
2021/07/19 05:40:13;;;;;;;23.23;16.40;;;;;;;23.23;63.37;98891.07;261139;1096;114719;-69
2021/07/19 05:45:20;;;;;;;13.73;8.50;;;;;;;23.31;63.11;98902.73;260910;1096;115422;-69
2021/07/19 05:50:29;;;;;;;12.00;6.27;;;;;;;23.30;62.92;98898.34;260504;1095;115766;-69
2021/07/19 05:55:36;;;;;;;11.27;7.93;;;;;;;23.38;63.44;98905.58;260889;1095;114911;-68
2021/07/19 06:00:45;;;;;;;12.70;7.07;;;;;;;23.44;63.04;98912.14;260694;1095;115213;-74
2021/07/19 06:05:49;;;;;;;12.83;6.57;;;;;;;23.48;62.66;98913.50;260886;1096;115194;-69
2021/07/19 06:10:56;;;;;;;10.43;6.50;;;;;;;23.55;62.86;98919.89;260948;1096;115560;-71
2021/07/19 06:16:01;;;;;;;11.20;7.20;;;;;;;23.63;62.74;98930.69;260729;1096;115236;-71
2021/07/19 06:21:06;;;;;;;49.20;13.40;;;;;;;23.72;62.16;98940.51;260787;1096;114598;-70
2021/07/19 06:26:14;;;;;;;18.63;8.90;;;;;;;23.77;62.69;98932.64;260849;1095;115345;-71
2021/07/19 06:31:19;;;;;;;13.60;7.70;;;;;;;23.73;62.07;98941.34;260840;1096;114760;-69
2021/07/19 06:36:26;;;;;;;13.83;6.77;;;;;;;23.58;61.95;98944.83;260929;1096;114939;-67
2021/07/19 06:41:33;;;;;;;49.23;14.30;;;;;;;23.56;62.12;98948.73;260839;1095;115561;-69
2021/07/19 06:46:42;;;;;;;30.68;13.83;;;;;;;23.68;62.51;98949.22;260907;1095;115140;-69
2021/07/19 06:51:52;;;;;;;21.00;9.17;;;;;;;23.82;62.53;98954.70;260769;1096;114798;-70
2021/07/19 06:56:59;;;;;;;14.53;8.30;;;;;;;23.96;62.46;98958.48;260842;1095;115122;-69
2021/07/19 07:02:05;;;;;;;12.97;8.40;;;;;;;24.04;62.25;98960.28;260846;1095;116329;-68
2021/07/19 07:07:11;;;;;;;11.30;6.70;;;;;;;24.06;61.87;98963.67;260958;1095;114602;-68
2021/07/19 07:12:21;;;;;;;11.70;6.60;;;;;;;24.00;61.82;98967.12;260757;1095;114696;-70
2021/07/19 07:17:30;;;;;;;11.83;6.53;;;;;;;23.95;61.79;98967.68;261067;1095;114631;-70
2021/07/19 07:22:44;;;;;;;36.03;24.67;;;;;;;23.94;61.77;98965.13;260587;1095;114531;-69
2021/07/19 07:27:52;;;;;;;19.35;9.75;;;;;;;23.82;61.60;98962.84;260770;1095;116695;-72
2021/07/19 07:33:05;;;;;;;218.20;162.03;;;;;;;23.68;61.46;98962.80;260572;1095;114746;-69
2021/07/19 07:38:19;;;;;;;219.97;161.43;;;;;;;23.56;61.55;98962.33;260663;1095;115289;-69
2021/07/19 07:43:30;;;;;;;184.17;134.50;;;;;;;23.52;61.73;98958.28;260965;1096;115873;-68
2021/07/19 07:48:39;;;;;;;39.57;26.70;;;;;;;23.50;61.75;98950.30;261723;1096;115812;-71
2021/07/19 07:53:56;;;;;;;31.50;21.13;;;;;;;23.49;61.97;98961.36;260793;1095;114865;-69
2021/07/19 07:59:04;;;;;;;24.33;13.27;;;;;;;23.49;62.07;98956.77;260947;1096;115756;-70
2021/07/19 08:04:13;;;;;;;13.20;7.80;;;;;;;23.55;61.84;98957.92;260653;1095;115023;-70
2021/07/19 08:09:16;;;;;;;13.75;8.03;;;;;;;23.54;61.89;98954.38;261836;1096;115342;-71
2021/07/19 08:14:20;;;;;;;12.43;7.45;;;;;;;23.58;62.11;98946.70;262345;1096;115487;-69
2021/07/19 08:19:28;;;;;;;11.88;8.38;;;;;;;23.60;61.60;98947.34;262316;1095;115005;-71
2021/07/19 08:24:32;;;;;;;11.13;6.97;;;;;;;23.65;61.80;98949.55;262092;1095;114809;-70
2021/07/19 08:29:36;;;;;;;12.98;7.48;;;;;;;23.65;61.69;98944.11;262779;1095;115785;-71
2021/07/19 08:34:41;;;;;;;12.30;6.90;;;;;;;23.73;62.10;98944.91;262409;1095;115454;-71
2021/07/19 08:39:45;;;;;;;9.70;7.43;;;;;;;23.88;62.24;98939.54;262640;1095;114992;-71
2021/07/19 08:44:49;;;;;;;10.78;6.75;;;;;;;24.00;61.93;98942.66;262687;1096;115865;-71
2021/07/19 08:49:52;;;;;;;15.28;6.60;;;;;;;24.02;61.43;98933.29;262648;1096;114961;-70
2021/07/19 08:54:57;;;;;;;13.68;6.30;;;;;;;23.97;60.90;98937.58;262762;1096;116566;-70
2021/07/19 09:00:05;;;;;;;9.53;6.30;;;;;;;23.97;61.26;98932.98;262829;1096;115533;-70
2021/07/19 09:05:10;;;;;;;16.40;6.90;;;;;;;23.99;61.18;98930.94;262603;1095;115279;-71
2021/07/19 09:10:14;;;;;;;15.73;9.17;;;;;;;24.10;61.46;98920.64;262522;1095;115333;-72
2021/07/19 09:15:37;;;;;;;11.43;7.90;;;;;;;24.19;61.32;98909.50;262700;1096;115815;-72
2021/07/19 09:20:42;;;;;;;12.20;6.83;;;;;;;24.26;61.32;98913.17;262688;1095;114660;-71
2021/07/19 09:25:46;;;;;;;12.80;5.80;;;;;;;24.34;60.82;98909.51;262517;1095;114512;-71
2021/07/19 09:30:49;;;;;;;19.63;7.35;;;;;;;24.45;61.03;98911.78;262490;1095;115847;-72
2021/07/19 09:35:54;;;;;;;13.75;6.80;;;;;;;24.54;60.92;98907.95;262847;1096;115560;-72
2021/07/19 09:41:00;;;;;;;10.60;6.47;;;;;;;24.63;60.90;98902.43;262017;1095;115714;-70
2021/07/19 09:46:09;;;;;;;11.63;6.97;;;;;;;24.74;60.73;98901.94;262504;1096;115456;-71
2021/07/19 09:51:12;;;;;;;11.57;6.30;;;;;;;24.80;60.61;98893.02;262606;1096;115146;-70
2021/07/19 09:56:25;;;;;;;9.17;6.33;;;;;;;24.78;60.35;98886.91;262766;1096;115735;-72
2021/07/19 10:01:31;;;;;;;11.43;6.80;;;;;;;24.72;60.20;98884.94;260829;1095;115184;-71
2021/07/19 10:06:38;;;;;;;10.30;5.83;;;;;;;24.69;60.16;98872.55;262808;1095;115478;-72
2021/07/19 10:11:53;;;;;;;12.90;6.00;;;;;;;24.71;60.00;98870.49;262586;1096;115765;-70
2021/07/19 10:16:58;;;;;;;11.57;6.40;;;;;;;24.78;59.91;98860.53;262829;1095;115001;-71
2021/07/19 10:22:03;;;;;;;10.93;6.57;;;;;;;24.83;59.65;98861.83;261505;1095;115893;-70
2021/07/19 10:27:11;;;;;;;12.13;6.58;;;;;;;24.90;59.52;98851.89;262730;1096;114960;-70
2021/07/19 10:32:21;;;;;;;11.13;5.83;;;;;;;25.02;59.43;98855.78;261922;1095;114870;-71
2021/07/19 10:37:32;;;;;;;10.07;5.27;;;;;;;25.13;58.65;98844.41;262668;1096;115470;-71
2021/07/19 10:42:40;;;;;;;11.23;6.00;;;;;;;25.16;58.22;98857.64;262365;1095;115062;-69
2021/07/19 10:47:53;;;;;;;11.93;6.23;;;;;;;25.12;58.18;98852.78;262308;1095;114706;-71
2021/07/19 10:53:01;;;;;;;12.13;6.17;;;;;;;25.19;58.31;98840.91;262518;1096;116053;-70
2021/07/19 10:58:07;;;;;;;11.00;5.80;;;;;;;25.44;58.12;98832.34;261730;1095;115260;-69
2021/07/19 11:03:16;;;;;;;9.43;5.93;;;;;;;25.71;57.81;98828.83;262656;1095;115257;-71
2021/07/19 11:08:26;;;;;;;12.90;7.30;;;;;;;25.91;57.08;98825.42;263041;1095;115680;-72
2021/07/19 11:13:35;;;;;;;17.27;7.17;;;;;;;26.09;57.07;98819.47;262800;1095;115043;-71
2021/07/19 11:18:39;;;;;;;29.87;7.40;;;;;;;25.97;55.74;98821.06;262688;1096;115138;-73
2021/07/19 11:23:43;;;;;;;16.73;6.83;;;;;;;25.83;55.94;98814.67;262529;1095;115172;-72
2021/07/19 11:28:46;;;;;;;13.68;7.15;;;;;;;25.73;55.59;98823.16;262603;1095;115559;-72
2021/07/19 11:34:02;;;;;;;11.83;6.83;;;;;;;25.67;55.67;98822.06;262787;1096;115079;-74
2021/07/19 11:39:19;;;;;;;13.77;7.23;;;;;;;25.92;55.93;98817.05;262725;1095;116305;-72
2021/07/19 11:44:24;;;;;;;14.17;7.63;;;;;;;26.10;55.20;98808.34;262718;1095;116051;-70
2021/07/19 11:49:27;;;;;;;;;;;;;;;26.01;54.53;98800.52;262105;1096;115321;-70
2021/07/19 11:54:31;;;;;;;14.97;8.80;;;;;;;25.80;54.49;98809.61;261624;1095;103042;-71
2021/07/19 11:59:38;;;;;;;21.83;9.38;;;;;;;25.82;55.10;98804.82;262826;1096;115723;-70
2021/07/19 12:04:44;;;;;;;17.57;10.27;;;;;;;25.99;54.81;98798.02;262736;1095;114947;-71
2021/07/19 12:09:58;;;;;;;15.43;10.07;;;;;;;26.00;54.19;98785.21;261416;1095;116081;-70
2021/07/19 12:15:03;;;;;;;15.00;10.47;;;;;;;26.21;54.23;98779.66;262677;1096;116687;-70
2021/07/19 12:20:07;;;;;;;14.75;10.60;;;;;;;26.43;53.98;98785.86;262746;1096;115485;-71
2021/07/19 12:25:11;;;;;;;19.10;9.45;;;;;;;26.56;53.30;98782.35;262513;1095;115312;-71
2021/07/19 12:30:15;;;;;;;16.78;9.63;;;;;;;26.52;52.26;98787.38;262802;1096;115598;-71
2021/07/19 12:35:23;;;;;;;13.23;9.90;;;;;;;26.30;51.85;98783.07;262037;1095;115253;-72
2021/07/19 12:40:27;;;;;;;16.17;8.93;;;;;;;26.48;52.27;98786.11;262553;1096;115744;-71
2021/07/19 12:45:31;;;;;;;15.57;9.93;;;;;;;26.55;51.38;98775.22;262576;1096;115584;-71
2021/07/19 12:50:35;;;;;;;;;;;;;;;26.55;51.01;98776.05;262891;1096;115601;-71
2021/07/19 12:55:39;;;;;;;19.07;8.90;;;;;;;26.41;50.55;98769.67;262699;1095;101274;-72
2021/07/19 13:00:46;;;;;;;12.30;9.63;;;;;;;26.36;50.69;98764.00;262551;1096;115511;-71
2021/07/19 13:05:50;;;;;;;;;;;;;;;26.47;50.25;98769.92;262538;1095;115279;-72
2021/07/19 13:11:27;;;;;;;19.57;10.50;;;;;;;26.76;50.48;98749.66;262952;1096;101176;-72
2021/07/19 13:16:31;;;;;;;14.35;9.55;;;;;;;27.10;50.39;98745.93;262562;1095;115395;-72
2021/07/19 13:21:35;;;;;;;14.25;8.68;;;;;;;27.17;49.46;98737.77;262571;1095;115125;-73
2021/07/19 13:26:39;;;;;;;21.97;10.80;;;;;;;27.28;49.38;98735.27;261746;1095;116810;-71
2021/07/19 13:31:43;;;;;;;17.98;9.98;;;;;;;27.63;49.39;98734.20;262000;1096;115559;-72
2021/07/19 13:36:48;;;;;;;17.40;9.80;;;;;;;27.98;49.79;98721.09;262562;1095;115221;-73
2021/07/19 13:42:30;;;;;;;16.90;11.00;;;;;;;28.24;48.78;98733.85;260321;1095;116387;-72
2021/07/19 13:47:34;;;;;;;15.90;10.53;;;;;;;28.18;47.90;98721.03;262334;1095;115524;-72
2021/07/19 13:52:38;;;;;;;17.27;10.43;;;;;;;28.00;47.56;98730.77;262843;1095;115743;-71
2021/07/19 13:57:42;;;;;;;;;;;;;;;28.02;47.41;98752.43;262157;1095;115741;-71
2021/07/19 14:02:46;;;;;;;20.73;11.63;;;;;;;28.12;47.31;98732.83;262681;1095;101601;-70
2021/07/19 14:07:50;;;;;;;28.03;13.60;;;;;;;27.99;46.86;98725.50;262637;1095;114960;-72
2021/07/19 14:12:54;;;;;;;17.83;11.78;;;;;;;28.09;47.20;98731.36;263082;1095;114910;-72
2021/07/19 14:17:57;;;;;;;;;;;;;;;28.36;46.56;98726.63;262420;1096;116819;-72
2021/07/19 14:23:01;;;;;;;17.60;13.90;;;;;;;28.56;46.18;98722.98;261776;1095;101796;-71
2021/07/19 14:28:05;;;;;;;19.70;13.60;;;;;;;28.78;46.49;98729.82;262756;1096;116125;-71
2021/07/19 14:33:08;;;;;;;22.50;14.68;;;;;;;28.74;45.76;98729.42;262894;1096;115682;-71
2021/07/19 14:38:12;;;;;;;25.33;15.33;;;;;;;28.36;45.45;98723.05;262741;1096;116215;-71
2021/07/19 14:43:16;;;;;;;19.00;14.75;;;;;;;28.16;45.48;98723.99;261852;1095;116165;-71
2021/07/19 14:48:20;;;;;;;;;;;;;;;27.98;45.49;98723.83;262906;1096;114817;-71
2021/07/19 14:53:23;;;;;;;23.67;16.23;;;;;;;27.66;45.31;98720.94;263099;1095;101232;-71
2021/07/19 14:58:27;;;;;;;22.75;15.60;;;;;;;27.33;45.18;98723.70;262723;1096;115590;-71
2021/07/19 15:03:30;;;;;;;21.25;16.65;;;;;;;27.10;45.80;98721.34;262367;1095;115120;-71
2021/07/19 15:08:35;;;;;;;21.88;16.25;;;;;;;26.88;45.96;98704.32;262845;1096;114787;-71
2021/07/19 15:13:39;;;;;;;22.30;16.87;;;;;;;26.72;46.08;98712.90;263096;1095;115583;-71
2021/07/19 15:18:45;;;;;;;21.70;17.07;;;;;;;26.59;45.76;98710.97;262894;1095;115914;-71
2021/07/19 15:23:49;;;;;;;24.88;17.60;;;;;;;26.53;46.42;98709.93;260663;1095;115285;-72
2021/07/19 15:28:52;;;;;;;20.52;16.10;;;;;;;26.42;46.35;98710.47;262618;1096;115742;-72
2021/07/19 15:33:57;;;;;;;23.15;16.40;;;;;;;26.32;46.24;98715.48;263219;1096;116251;-72
2021/07/19 15:39:01;;;;;;;19.65;15.35;;;;;;;26.25;46.14;98715.45;262775;1095;115352;-72
2021/07/19 15:44:05;;;;;;;21.28;14.68;;;;;;;26.21;46.33;98710.61;262955;1096;116282;-72
2021/07/19 15:49:09;;;;;;;17.00;12.15;;;;;;;26.16;46.67;98716.69;262814;1095;115784;-71
2021/07/19 15:54:13;;;;;;;16.13;12.00;;;;;;;26.13;46.32;98719.83;262698;1096;115314;-72
2021/07/19 15:59:17;;;;;;;23.60;11.97;;;;;;;26.08;46.98;98723.14;262880;1096;115792;-71
2021/07/19 16:04:20;;;;;;;16.95;11.55;;;;;;;26.07;47.05;98718.73;263143;1096;114805;-69
2021/07/19 16:09:24;;;;;;;14.25;10.08;;;;;;;26.12;47.40;98713.53;262969;1096;115328;-72
2021/07/19 16:14:28;;;;;;;16.53;9.13;;;;;;;26.07;47.24;98724.19;262572;1095;115754;-70
2021/07/19 16:19:32;;;;;;;13.50;7.93;;;;;;;26.00;47.78;98728.78;262330;1096;115558;-70
2021/07/19 16:24:36;;;;;;;18.93;9.15;;;;;;;25.98;47.66;98733.58;261204;1095;114589;-72
2021/07/19 16:29:40;;;;;;;21.23;8.23;;;;;;;25.97;48.10;98728.34;261460;1095;115661;-71
2021/07/19 16:34:43;;;;;;;12.08;7.83;;;;;;;25.92;47.92;98745.31;262199;1095;115794;-70
2021/07/19 16:39:48;;;;;;;17.03;8.50;;;;;;;25.86;48.16;98746.11;262544;1095;117725;-72
2021/07/19 16:44:52;;;;;;;12.90;8.40;;;;;;;25.79;48.11;98745.20;262606;1095;115699;-71
2021/07/19 16:49:55;;;;;;;15.83;8.55;;;;;;;25.78;48.24;98754.40;262767;1096;115327;-72
2021/07/19 16:54:59;;;;;;;16.65;10.00;;;;;;;25.73;48.50;98752.28;262237;1096;115230;-73
2021/07/19 17:00:05;;;;;;;16.98;8.38;;;;;;;25.61;48.19;98751.14;262685;1096;115517;-71
2021/07/19 17:05:12;;;;;;;13.37;9.27;;;;;;;25.53;48.31;98757.59;262798;1095;115570;-71
2021/07/19 17:10:16;;;;;;;13.57;9.07;;;;;;;25.49;48.75;98764.48;262675;1095;115650;-71
2021/07/19 17:15:20;;;;;;;13.18;8.73;;;;;;;25.45;48.94;98768.65;262513;1096;115014;-69
2021/07/19 17:20:36;;;;;;;;;;;;;;;25.40;49.40;98785.57;262593;1095;115339;-70
2021/07/19 17:25:40;;;;;;;14.90;8.83;;;;;;;25.31;49.97;98786.77;262890;1095;102690;-70
2021/07/19 17:30:44;;;;;;;16.18;9.45;;;;;;;25.25;50.07;98785.66;263138;1095;115728;-69
2021/07/19 17:35:49;;;;;;;17.93;7.33;;;;;;;25.18;49.86;98790.20;262777;1095;115321;-71
2021/07/19 17:40:53;;;;;;;11.97;7.17;;;;;;;25.06;50.35;98793.60;262743;1095;114702;-70
2021/07/19 17:45:57;;;;;;;12.43;6.93;;;;;;;24.94;50.60;98788.68;262690;1096;116832;-70
2021/07/19 17:51:01;;;;;;;11.10;7.30;;;;;;;24.86;50.62;98801.56;263110;1095;115970;-71
2021/07/19 17:56:05;;;;;;;12.38;6.35;;;;;;;24.76;50.65;98802.73;262756;1096;114614;-73
2021/07/19 18:01:08;;;;;;;13.83;6.15;;;;;;;24.68;50.64;98816.44;262667;1095;115530;-70
2021/07/19 18:06:13;;;;;;;14.93;7.05;;;;;;;24.59;50.65;98812.13;262724;1096;115571;-71
2021/07/19 18:11:18;;;;;;;10.27;6.07;;;;;;;24.53;51.34;98813.76;262204;1095;116221;-69
2021/07/19 18:16:22;;;;;;;13.10;6.10;;;;;;;24.51;50.96;98823.97;262711;1095;115153;-71
2021/07/19 18:21:54;;;;;;;9.48;6.55;;;;;;;24.46;50.88;98823.72;262654;1095;115579;-69
2021/07/19 18:31:58;;;;;;;31.83;7.57;;;;;;;24.43;51.22;98828.69;262026;1096;116067;-69
2021/07/19 18:37:02;;;;;;;15.38;9.13;;;;;;;24.39;51.19;98825.48;262779;1095;115302;-72
2021/07/19 18:42:06;;;;;;;47.50;29.08;;;;;;;24.29;51.37;98839.36;262811;1094;114554;-69
2021/07/19 18:47:10;;;;;;;22.00;13.37;;;;;;;24.17;51.37;98853.61;261498;1095;115989;-70
2021/07/19 18:52:17;;;;;;;12.90;7.73;;;;;;;24.10;51.69;98861.66;260964;1095;115083;-70
2021/07/19 18:57:22;;;;;;;14.57;9.93;;;;;;;23.93;51.88;98860.14;262232;1095;114936;-68
2021/07/19 19:02:25;;;;;;;28.38;11.75;;;;;;;23.84;52.30;98876.55;262569;1095;114947;-70
2021/07/19 19:07:30;;;;;;;15.25;11.98;;;;;;;23.76;52.60;98878.48;262626;1095;115800;-69
2021/07/19 19:12:35;;;;;;;14.40;7.80;;;;;;;23.59;52.25;98885.89;261457;1096;115353;-74
2021/07/19 19:17:56;;;;;;;15.93;7.67;;;;;;;23.32;52.51;98890.00;260691;1095;115237;-71
2021/07/19 19:23:03;;;;;;;11.20;8.10;;;;;;;23.05;53.10;98892.20;260735;1094;115330;-71
2021/07/19 19:28:16;;;;;;;23.03;15.60;;;;;;;22.86;53.72;98892.60;261460;1096;115137;-69
2021/07/19 19:33:23;;;;;;;12.60;7.50;;;;;;;22.81;53.87;98886.88;260571;1095;115940;-68
2021/07/19 19:38:32;;;;;;;10.13;7.20;;;;;;;22.64;54.01;98886.95;260842;1095;115133;-70
2021/07/19 19:43:43;;;;;;;11.17;7.90;;;;;;;22.46;54.28;98894.48;260662;1095;114881;-69
2021/07/19 19:48:47;;;;;;;11.90;7.43;;;;;;;22.30;54.71;98900.80;262553;1096;115264;-69
2021/07/19 19:53:51;;;;;;;12.63;7.43;;;;;;;22.19;54.91;98896.59;262560;1095;115431;-69
2021/07/19 19:58:57;;;;;;;10.20;7.23;;;;;;;22.11;55.51;98899.30;262532;1096;115307;-70
2021/07/19 20:04:01;;;;;;;10.70;6.37;;;;;;;22.08;55.58;98905.06;262939;1095;115471;-70
2021/07/19 20:09:05;;;;;;;11.48;6.38;;;;;;;22.09;55.56;98906.75;262622;1096;115605;-69
2021/07/19 20:14:09;;;;;;;12.05;6.98;;;;;;;22.06;55.38;98908.95;262531;1096;115443;-70
2021/07/19 20:19:12;;;;;;;13.35;6.83;;;;;;;22.05;55.35;98901.85;262644;1095;115626;-70
2021/07/19 20:24:16;;;;;;;10.90;6.28;;;;;;;22.06;55.65;98906.25;262802;1095;115072;-70
2021/07/19 20:29:20;;;;;;;9.95;5.88;;;;;;;22.01;55.48;98911.31;261685;1095;115452;-71
2021/07/19 20:34:25;;;;;;;10.77;6.50;;;;;;;22.01;56.01;98911.31;262594;1096;115416;-71
2021/07/19 20:39:29;;;;;;;11.73;5.98;;;;;;;22.00;55.99;98910.48;262694;1096;114914;-74
2021/07/19 20:44:33;;;;;;;10.70;6.30;;;;;;;21.95;55.93;98919.13;262587;1096;115329;-71
2021/07/19 20:49:38;;;;;;;13.15;5.70;;;;;;;21.94;55.98;98925.58;262382;1095;115310;-74
2021/07/19 20:54:42;;;;;;;13.35;6.18;;;;;;;21.93;56.08;98923.02;262531;1096;114850;-71
2021/07/19 20:59:46;;;;;;;11.30;6.20;;;;;;;21.88;56.31;98939.80;262874;1095;114901;-71
2021/07/19 21:04:49;;;;;;;9.90;6.10;;;;;;;21.85;56.22;98932.01;262897;1095;115318;-71
2021/07/19 21:09:53;;;;;;;9.70;6.03;;;;;;;21.82;56.40;98935.05;262458;1095;114910;-71
2021/07/19 21:14:58;;;;;;;16.83;6.88;;;;;;;21.81;56.70;98933.38;262474;1096;115078;-71
2021/07/19 21:20:03;;;;;;;10.07;6.20;;;;;;;21.82;56.39;98935.05;262739;1096;114757;-72
2021/07/19 21:25:09;;;;;;;13.00;6.37;;;;;;;21.83;56.95;98933.19;262890;1095;115006;-72
2021/07/19 21:30:14;;;;;;;13.20;6.70;;;;;;;21.82;56.79;98936.92;262643;1096;115103;-73
2021/07/19 21:35:18;;;;;;;12.33;6.30;;;;;;;21.81;57.28;98936.08;262552;1096;115226;-71
2021/07/19 21:40:21;;;;;;;12.88;6.55;;;;;;;21.79;57.05;98938.10;262775;1095;115072;-72
2021/07/19 21:45:27;;;;;;;14.28;7.00;;;;;;;21.79;57.40;98935.39;262520;1095;115211;-71
2021/07/19 21:50:31;;;;;;;9.40;6.30;;;;;;;21.81;57.82;98933.38;262519;1095;115248;-71
2021/07/19 21:55:38;;;;;;;13.15;6.58;;;;;;;21.85;57.85;98931.17;262704;1096;115449;-72
2021/07/19 22:00:42;;;;;;;13.80;7.10;;;;;;;21.85;57.83;98926.59;262509;1096;115456;-71
2021/07/19 22:05:48;;;;;;;10.03;6.47;;;;;;;21.82;57.97;98924.22;260678;1095;116807;-72
2021/07/19 22:10:57;;;;;;;11.20;7.07;;;;;;;21.82;57.95;98921.51;260603;1096;114935;-70
2021/07/19 22:16:14;;;;;;;13.70;6.95;;;;;;;21.76;58.06;98932.17;260678;1096;114876;-71
2021/07/19 22:21:21;;;;;;;10.90;6.80;;;;;;;21.69;58.03;98923.88;260646;1096;114689;-70
2021/07/19 22:26:38;;;;;;;;;;;;;;;21.62;58.08;98926.41;260672;1095;114907;-69
2021/07/19 22:31:54;;;;;;;15.60;6.80;;;;;;;21.56;58.15;98926.23;261051;1094;102919;-70
2021/07/19 22:37:06;;;;;;;10.83;7.47;;;;;;;21.50;58.38;98916.91;260875;1094;116161;-70
2021/07/19 22:42:15;;;;;;;11.30;6.77;;;;;;;21.44;58.40;98928.44;260763;1095;114521;-72
2021/07/19 22:47:23;;;;;;;14.00;7.30;;;;;;;21.45;58.70;98922.84;261171;1095;114688;-69
2021/07/19 22:52:32;;;;;;;14.20;6.60;;;;;;;21.47;58.99;98919.98;260816;1095;115006;-69
2021/07/19 22:57:43;;;;;;;13.40;7.40;;;;;;;21.47;58.64;98923.53;261208;1095;114672;-71
2021/07/19 23:02:49;;;;;;;85.13;59.93;;;;;;;21.53;59.06;98919.29;260683;1095;114476;-71
2021/07/19 23:07:56;;;;;;;15.95;9.78;;;;;;;21.60;58.55;98919.46;262053;1095;115321;-75
2021/07/19 23:13:02;;;;;;;13.73;8.07;;;;;;;21.58;58.19;98908.81;262542;1096;114704;-75
2021/07/19 23:18:07;;;;;;;15.35;7.90;;;;;;;21.54;58.02;98909.33;262913;1096;115039;-71
2021/07/19 23:23:11;;;;;;;14.50;7.87;;;;;;;21.49;58.28;98915.23;261142;1095;114858;-69
2021/07/19 23:28:14;;;;;;;12.90;8.00;;;;;;;21.43;58.31;98915.89;262654;1095;115931;-70